Time;durP1;ratioP1;P1;durP2;ratioP2;P2;SDS_P1;SDS_P2;PMS_P1;PMS_P2;Temp;Humidity;BMP_temperature;BMP_pressure;BME280_temperature;BME280_humidity;BME280_pressure;Samples;Min_cycle;Max_cycle;Signal;HPM_P1;HPM_P2
2023/05/16 00:01:01;;;;;;;12.75;9.10;;;;;;;8.99;100.00;100175.09;5063057;28;20508;-82
2023/05/16 00:03:29;;;;;;;9.50;8.53;;;;;;;8.90;100.00;100177.94;5065506;28;20132;-82
2023/05/16 00:05:58;;;;;;;11.05;9.60;;;;;;;8.95;100.00;100178.72;5090894;28;20040;-82
2023/05/16 00:08:25;;;;;;;10.57;8.75;;;;;;;8.90;100.00;100175.28;5091573;28;20036;-83
2023/05/16 00:10:52;;;;;;;12.20;10.05;;;;;;;8.90;100.00;100164.75;5077284;28;20071;-81
2023/05/16 00:13:23;;;;;;;9.52;8.60;;;;;;;8.91;100.00;100161.22;5060331;28;20040;-83
2023/05/16 00:15:56;;;;;;;9.98;8.32;;;;;;;8.87;100.00;100164.81;5054076;28;20067;-80
2023/05/16 00:18:24;;;;;;;10.27;8.47;;;;;;;8.77;100.00;100169.44;5071007;28;20041;-83
2023/05/16 00:20:53;;;;;;;9.43;8.33;;;;;;;8.73;100.00;100160.72;5056031;28;20523;-81
2023/05/16 00:23:20;;;;;;;10.10;8.90;;;;;;;8.66;100.00;100166.13;5041295;28;20048;-81
2023/05/16 00:25:47;;;;;;;11.63;9.13;;;;;;;8.70;100.00;100163.41;5057944;28;20083;-82
2023/05/16 00:28:14;;;;;;;9.63;8.57;;;;;;;8.65;100.00;100162.63;5056156;28;20067;-81
2023/05/16 00:30:41;;;;;;;9.70;8.50;;;;;;;8.57;100.00;100163.69;5045949;28;20040;-82
2023/05/16 00:33:08;;;;;;;10.07;8.70;;;;;;;8.49;100.00;100161.19;5036694;28;20043;-82
2023/05/16 00:35:34;;;;;;;10.77;8.90;;;;;;;8.39;100.00;100165.78;5046105;28;20036;-81
2023/05/16 00:38:03;;;;;;;9.77;8.43;;;;;;;8.45;100.00;100168.31;5054622;28;20039;-81
2023/05/16 00:40:30;;;;;;;10.47;8.80;;;;;;;8.38;100.00;100163.19;5068477;28;20040;-82
2023/05/16 00:42:57;;;;;;;10.70;8.80;;;;;;;8.41;100.00;100168.41;5036528;28;20035;-81
2023/05/16 00:45:23;;;;;;;10.03;8.43;;;;;;;8.37;100.00;100178.13;5051792;28;20040;-81
2023/05/16 00:47:50;;;;;;;11.17;8.60;;;;;;;8.31;100.00;100170.28;5072545;28;20041;-82
2023/05/16 00:50:18;;;;;;;10.60;8.63;;;;;;;8.29;100.00;100173.88;5059804;28;20048;-81
2023/05/16 00:52:44;;;;;;;12.47;8.57;;;;;;;8.28;100.00;100165.09;5041992;28;20056;-80
2023/05/16 00:55:12;;;;;;;9.57;8.10;;;;;;;8.28;100.00;100165.09;5059383;28;20033;-81
2023/05/16 00:57:39;;;;;;;12.20;9.53;;;;;;;8.31;100.00;100170.28;5063384;28;20040;-81
2023/05/16 01:00:09;;;;;;;9.87;8.17;;;;;;;8.27;100.00;100170.41;5054972;28;20040;-81
2023/05/16 01:02:42;;;;;;;13.10;9.50;;;;;;;8.28;100.00;100175.63;5054374;28;20040;-83
2023/05/16 01:05:09;;;;;;;10.93;8.87;;;;;;;8.18;100.00;100174.94;5051984;28;20403;-81
2023/05/16 01:07:36;;;;;;;10.80;8.00;;;;;;;8.25;100.00;100180.09;5051834;28;20497;-82
2023/05/16 01:10:03;;;;;;;9.87;8.73;;;;;;;8.18;100.00;100192.50;5051502;28;20457;-80
2023/05/16 01:12:37;;;;;;;10.73;8.57;;;;;;;8.15;100.00;100184.63;5052607;28;20529;-83
2023/05/16 01:15:11;;;;;;;10.50;8.40;;;;;;;8.16;100.00;100182.00;5101323;28;20040;-82
2023/05/16 01:18:05;;;;;;;10.77;8.93;;;;;;;8.18;100.00;100188.09;5068817;28;20051;-82
2023/05/16 01:20:37;;;;;;;11.43;9.15;;;;;;;8.13;100.00;100191.69;5079509;28;20039;-82
2023/05/16 01:23:17;;;;;;;11.05;9.18;;;;;;;8.07;100.00;100187.44;5052791;28;20040;-82
2023/05/16 01:25:44;;;;;;;10.57;9.00;;;;;;;8.04;100.00;100186.59;5073293;28;20351;-83
2023/05/16 01:28:13;;;;;;;10.83;8.93;;;;;;;8.11;100.00;100182.97;5081403;28;20032;-82
2023/05/16 01:30:40;;;;;;;12.63;9.57;;;;;;;8.03;100.00;100185.72;5053816;28;20044;-83
2023/05/16 01:33:07;;;;;;;11.90;9.60;;;;;;;8.17;100.00;100188.13;5064967;28;20075;-83
2023/05/16 01:35:57;;;;;;;10.00;8.27;;;;;;;8.08;100.00;100181.28;5063101;28;20043;-83
2023/05/16 01:38:26;;;;;;;12.10;8.97;;;;;;;8.04;100.00;100192.72;5063226;28;20044;-83
2023/05/16 01:41:09;;;;;;;10.30;8.53;;;;;;;7.90;100.00;100193.00;5079518;28;20036;-83
2023/05/16 01:43:44;;;;;;;9.30;7.83;;;;;;;7.85;100.00;100202.72;5055094;28;20040;-82
2023/05/16 01:46:15;;;;;;;12.57;9.30;;;;;;;7.88;100.00;100205.28;5054642;28;20044;-82
2023/05/16 01:48:52;;;;;;;11.77;9.93;;;;;;;7.89;100.00;100198.25;5061178;28;20044;-82
2023/05/16 01:51:24;;;;;;;12.20;10.50;;;;;;;7.84;100.00;100202.72;5058418;28;20047;-83
2023/05/16 01:53:51;;;;;;;10.67;8.87;;;;;;;7.89;100.00;100204.38;5061590;28;20040;-82
2023/05/16 01:56:18;;;;;;;11.00;8.80;;;;;;;7.84;100.00;100203.59;5050743;28;20075;-82
2023/05/16 01:58:46;;;;;;;10.73;9.27;;;;;;;7.81;100.00;100203.63;5052449;28;20453;-83
2023/05/16 02:01:13;;;;;;;10.73;9.50;;;;;;;7.84;100.00;100210.63;5045562;28;20051;-82
2023/05/16 02:03:40;;;;;;;12.47;10.00;;;;;;;7.95;100.00;100221.81;5050727;28;20052;-82
2023/05/16 02:06:07;;;;;;;12.47;10.00;;;;;;;7.84;100.00;100214.13;5042288;28;20127;-82
2023/05/16 02:08:33;;;;;;;12.90;10.20;;;;;;;7.97;100.00;100208.63;5050268;28;20048;-83
2023/05/16 02:11:00;;;;;;;12.80;9.83;;;;;;;7.88;100.00;100223.69;5031991;28;20047;-82
2023/05/16 02:13:27;;;;;;;12.33;10.23;;;;;;;7.89;100.00;100220.16;5034626;28;20041;-82
2023/05/16 02:15:53;;;;;;;13.33;10.60;;;;;;;7.83;100.00;100217.66;5033113;28;20035;-83
2023/05/16 02:18:22;;;;;;;14.63;11.67;;;;;;;8.03;100.00;100224.31;5084320;28;20114;-82
2023/05/16 02:20:49;;;;;;;16.80;12.67;;;;;;;8.08;100.00;100230.41;5104277;28;20044;-82
2023/05/16 02:23:16;;;;;;;15.17;12.37;;;;;;;8.16;100.00;100225.88;5069224;28;20122;-81
2023/05/16 02:25:43;;;;;;;14.47;9.27;;;;;;;8.06;100.00;100226.91;5035951;28;20044;-83
2023/05/16 02:28:10;;;;;;;12.60;9.80;;;;;;;8.08;100.00;100231.25;5056746;28;20051;-82
2023/05/16 02:30:36;;;;;;;10.37;9.03;;;;;;;8.02;100.00;100233.13;5070597;28;20048;-82
2023/05/16 02:33:03;;;;;;;10.30;8.73;;;;;;;8.01;100.00;100231.38;5039145;28;20041;-83
2023/05/16 02:35:30;;;;;;;10.47;8.37;;;;;;;7.83;100.00;100235.19;5054216;28;20032;-82
2023/05/16 02:37:57;;;;;;;10.40;9.17;;;;;;;7.92;100.00;100244.69;5049335;28;20040;-82
2023/05/16 02:40:23;;;;;;;10.63;9.03;;;;;;;7.82;100.00;100246.59;5034160;28;20045;-81
2023/05/16 02:42:50;;;;;;;10.87;9.67;;;;;;;7.81;100.00;100245.72;5067281;28;20037;-81
2023/05/16 02:45:16;;;;;;;12.53;10.03;;;;;;;7.94;100.00;100253.41;5050733;28;20036;-81
2023/05/16 02:47:43;;;;;;;12.40;9.63;;;;;;;7.90;100.00;100248.22;5066950;28;20570;-83
2023/05/16 02:50:10;;;;;;;12.57;9.60;;;;;;;7.77;100.00;100254.56;5023541;22;20046;-83
2023/05/16 02:52:36;;;;;;;12.13;9.10;;;;;;;7.77;100.00;100251.06;4971289;28;20046;-83
2023/05/16 02:55:04;;;;;;;12.07;10.17;;;;;;;7.84;100.00;100265.84;4988604;28;20416;-83
2023/05/16 02:57:47;;;;;;;12.85;9.95;;;;;;;7.98;100.00;100260.34;5003378;28;20046;-82
2023/05/16 03:00:14;;;;;;;13.57;10.13;;;;;;;8.03;100.00;100262.03;4972757;28;20053;-83
2023/05/16 03:02:44;;;;;;;15.30;11.50;;;;;;;8.04;100.00;100262.91;4987734;28;20050;-83
2023/05/16 03:05:11;;;;;;;14.33;10.37;;;;;;;8.04;100.00;100270.78;4984012;28;20092;-83
2023/05/16 03:07:38;;;;;;;15.53;12.13;;;;;;;8.16;100.00;100271.47;5008922;28;20042;-83
2023/05/16 03:10:05;;;;;;;16.27;12.13;;;;;;;8.22;100.00;100269.59;4985704;28;20029;-83
2023/05/16 03:12:32;;;;;;;15.73;11.77;;;;;;;8.30;100.00;100273.84;4999412;28;20053;-82
2023/05/16 03:14:59;;;;;;;17.60;13.30;;;;;;;8.29;100.00;100273.88;5013975;28;20041;-83
2023/05/16 03:17:25;;;;;;;15.67;12.20;;;;;;;8.43;100.00;100288.56;4990076;28;20046;-82
2023/05/16 03:19:53;;;;;;;15.90;13.00;;;;;;;8.44;100.00;100285.03;4991847;28;21119;-82
2023/05/16 03:22:19;;;;;;;17.80;13.20;;;;;;;8.50;100.00;100280.56;4980525;28;20104;-83
2023/05/16 03:24:46;;;;;;;17.47;13.30;;;;;;;8.68;100.00;100290.75;5015317;28;20038;-82
2023/05/16 03:27:13;;;;;;;17.63;12.83;;;;;;;8.64;100.00;100287.31;5010541;28;20121;-82
2023/05/16 03:29:39;;;;;;;18.10;12.57;;;;;;;8.69;100.00;100287.22;4984022;28;20053;-83
2023/05/16 03:32:06;;;;;;;16.88;13.15;;;;;;;8.76;100.00;100286.22;5007345;28;20056;-83
2023/05/16 03:34:33;;;;;;;19.67;14.70;;;;;;;8.91;100.00;100292.94;4993722;28;20069;-83
2023/05/16 03:37:00;;;;;;;20.10;14.33;;;;;;;8.89;100.00;100297.38;4970527;28;20092;-84
2023/05/16 03:39:26;;;;;;;16.23;12.23;;;;;;;8.93;100.00;100297.31;5006777;28;20034;-83
2023/05/16 03:41:56;;;;;;;16.08;12.55;;;;;;;9.06;100.00;100299.69;4975801;28;20038;-83
2023/05/16 03:44:23;;;;;;;14.53;11.67;;;;;;;9.03;100.00;100304.13;5000563;28;20125;-83
2023/05/16 03:46:50;;;;;;;16.52;11.93;;;;;;;9.03;100.00;100298.84;4984125;28;20040;-83
2023/05/16 03:49:17;;;;;;;19.17;14.23;;;;;;;9.11;100.00;100308.38;5003077;28;20506;-83
2023/05/16 03:51:44;;;;;;;18.40;12.73;;;;;;;9.21;100.00;100304.66;4993414;28;20048;-83
2023/05/16 03:54:10;;;;;;;24.38;14.57;;;;;;;9.33;100.00;100309.66;5005539;28;20050;-84
2023/05/16 03:56:37;;;;;;;19.92;14.65;;;;;;;9.43;100.00;100312.97;4985020;28;20045;-83
2023/05/16 03:59:04;;;;;;;19.13;14.17;;;;;;;9.43;100.00;100311.22;4987755;28;20710;-84
2023/05/16 04:01:31;;;;;;;19.85;14.60;;;;;;;9.57;100.00;100316.16;4987879;28;20034;-83
2023/05/16 04:03:57;;;;;;;19.80;14.23;;;;;;;9.59;100.00;100317.91;4986049;28;20056;-83
2023/05/16 04:06:24;;;;;;;24.40;15.75;;;;;;;9.68;100.00;100323.88;4985615;28;20045;-84
2023/05/16 04:08:51;;;;;;;20.45;14.88;;;;;;;9.76;100.00;100327.22;4995809;28;20046;-83
2023/05/16 04:11:17;;;;;;;23.30;15.95;;;;;;;9.87;100.00;100327.81;4991976;28;20037;-83
2023/05/16 04:13:44;;;;;;;25.38;16.65;;;;;;;9.97;100.00;100337.25;4984746;28;20045;-82
2023/05/16 04:16:12;;;;;;;25.02;16.65;;;;;;;10.13;100.00;100330.72;4991456;28;20037;-83
2023/05/16 04:18:38;;;;;;;23.17;14.88;;;;;;;10.14;100.00;100327.16;4991251;28;20034;-82
2023/05/16 04:21:06;;;;;;;23.17;15.82;;;;;;;10.24;100.00;100337.53;5021911;28;20034;-83
2023/05/16 04:23:33;;;;;;;30.00;17.80;;;;;;;10.41;100.00;100343.25;4998214;28;20542;-83
2023/05/16 04:26:00;;;;;;;23.70;15.40;;;;;;;10.33;100.00;100337.31;4973108;28;20042;-83
2023/05/16 04:28:27;;;;;;;25.05;16.83;;;;;;;10.37;100.00;100344.25;4992143;28;20114;-82
2023/05/16 04:30:54;;;;;;;24.95;15.63;;;;;;;10.48;100.00;100350.13;5009403;28;20049;-84
2023/05/16 04:33:20;;;;;;;25.20;16.35;;;;;;;10.61;100.00;100351.56;4986748;28;20050;-83
2023/05/16 04:35:47;;;;;;;25.17;17.13;;;;;;;10.69;100.00;100356.66;4965001;28;20125;-83
2023/05/16 04:38:14;;;;;;;25.08;16.38;;;;;;;10.62;100.00;100347.16;4979648;28;20130;-83
2023/05/16 04:40:41;;;;;;;24.38;16.05;;;;;;;10.72;100.00;100353.94;4983583;28;20042;-83
2023/05/16 04:43:07;;;;;;;21.73;15.02;;;;;;;10.66;100.00;100356.72;5003200;28;20074;-83
2023/05/16 04:45:34;;;;;;;25.42;14.63;;;;;;;10.71;100.00;100361.00;4990137;28;20458;-83
2023/05/16 04:48:03;;;;;;;23.73;15.70;;;;;;;10.71;100.00;100361.00;4993716;28;20038;-83
2023/05/16 04:50:30;;;;;;;18.92;14.07;;;;;;;10.66;100.00;100368.16;5004015;28;20411;-83
2023/05/16 04:52:57;;;;;;;22.60;15.48;;;;;;;10.68;100.00;100371.66;5001708;28;20041;-83
2023/05/16 04:55:24;;;;;;;20.23;13.68;;;;;;;10.64;100.00;100379.69;4996175;28;20076;-82
2023/05/16 04:57:52;;;;;;;25.58;15.73;;;;;;;10.68;100.00;100387.50;4982214;28;20096;-81
2023/05/16 05:00:20;;;;;;;26.40;16.80;;;;;;;10.71;100.00;100387.41;5004237;28;20514;-81
2023/05/16 05:02:47;;;;;;;23.23;14.20;;;;;;;10.76;100.00;100399.63;5004564;28;20033;-81
2023/05/16 05:05:14;;;;;;;17.90;11.63;;;;;;;10.76;100.00;100396.97;5000233;28;20046;-81
2023/05/16 05:07:42;;;;;;;19.92;13.65;;;;;;;10.83;100.00;100402.06;4979616;28;20104;-80
2023/05/16 05:10:09;;;;;;;22.15;14.35;;;;;;;10.87;100.00;100402.88;4991352;28;20060;-80
2023/05/16 05:12:36;;;;;;;15.48;11.63;;;;;;;10.79;100.00;100407.50;5000425;28;20048;-82
2023/05/16 05:15:04;;;;;;;17.40;11.00;;;;;;;10.83;100.00;100422.34;5017658;28;20034;-81
2023/05/16 05:17:31;;;;;;;16.17;11.00;;;;;;;10.81;100.00;100430.31;5007241;28;20045;-82
2023/05/16 05:20:00;;;;;;;14.88;10.55;;;;;;;10.85;100.00;100428.50;5002783;28;20033;-81
2023/05/16 05:22:29;;;;;;;15.15;9.75;;;;;;;10.78;100.00;100432.19;5011400;28;20089;-82
2023/05/16 05:24:56;;;;;;;15.90;10.00;;;;;;;10.80;100.00;100441.81;4999697;28;20482;-82
2023/05/16 05:27:24;;;;;;;14.75;10.40;;;;;;;10.76;100.00;100439.25;5010335;28;20037;-82
2023/05/16 05:29:51;;;;;;;17.35;10.35;;;;;;;10.63;100.00;100434.28;4993898;28;20100;-82
2023/05/16 05:32:17;;;;;;;16.20;10.70;;;;;;;10.74;100.00;100438.44;5009885;28;20052;-82
2023/05/16 05:34:44;;;;;;;15.48;10.10;;;;;;;10.81;100.00;100442.66;4990311;28;20518;-81
2023/05/16 05:37:11;;;;;;;15.93;10.60;;;;;;;10.77;100.00;100441.91;5003485;28;20038;-81
2023/05/16 05:39:37;;;;;;;17.35;11.80;;;;;;;10.84;100.00;100445.22;5009898;28;20049;-81
2023/05/16 05:42:04;;;;;;;15.45;10.73;;;;;;;10.85;100.00;100436.41;5000477;28;20042;-82
2023/05/16 05:44:32;;;;;;;20.23;12.23;;;;;;;10.88;100.00;100455.69;4985990;28;20046;-82
2023/05/16 05:46:58;;;;;;;18.25;12.43;;;;;;;10.80;100.00;100468.22;4981736;28;20503;-82
2023/05/16 05:49:25;;;;;;;18.70;12.77;;;;;;;10.77;100.00;100470.09;5016660;28;20231;-81
2023/05/16 05:51:52;;;;;;;19.92;12.45;;;;;;;10.71;100.00;100469.31;4976128;28;20072;-81
2023/05/16 05:54:19;;;;;;;19.08;12.00;;;;;;;10.66;100.00;100465.91;4973100;28;20530;-80
2023/05/16 05:56:46;;;;;;;18.17;12.23;;;;;;;10.63;100.00;100479.22;5003686;28;20049;-81
2023/05/16 05:59:13;;;;;;;18.95;12.25;;;;;;;10.50;100.00;100488.31;4982997;28;20865;-81
2023/05/16 06:01:39;;;;;;;17.77;11.70;;;;;;;10.50;100.00;100492.72;4990466;28;20620;-82
2023/05/16 06:04:06;;;;;;;16.67;10.52;;;;;;;10.58;100.00;100509.25;4989583;28;20136;-81
2023/05/16 06:06:33;;;;;;;16.27;10.35;;;;;;;10.53;100.00;100504.09;4989376;28;20042;-82
2023/05/16 06:09:00;;;;;;;16.98;10.20;;;;;;;10.41;100.00;100507.88;4989486;28;20044;-81
2023/05/16 06:11:26;;;;;;;15.50;10.43;;;;;;;10.37;100.00;100505.34;4988458;28;20045;-81
2023/05/16 06:13:53;;;;;;;15.88;10.05;;;;;;;10.35;100.00;100502.75;5006082;28;20397;-82
2023/05/16 06:16:24;;;;;;;16.20;10.57;;;;;;;10.40;100.00;100510.56;5002942;28;20034;-83
2023/05/16 06:18:50;;;;;;;16.13;10.35;;;;;;;10.38;100.00;100517.66;4972987;28;20038;-80
2023/05/16 06:21:17;;;;;;;15.90;10.48;;;;;;;10.53;100.00;100525.25;4987244;28;20396;-81
2023/05/16 06:23:44;;;;;;;16.85;10.70;;;;;;;10.54;100.00;100526.09;5017249;28;20437;-80
2023/05/16 06:26:11;;;;;;;15.80;10.48;;;;;;;10.51;100.00;100534.06;5003598;28;20483;-82
2023/05/16 06:28:37;;;;;;;17.20;10.95;;;;;;;10.50;100.00;100538.50;4976219;28;20041;-83
2023/05/16 06:31:04;;;;;;;17.50;11.50;;;;;;;10.51;100.00;100536.72;4975905;28;20101;-81
2023/05/16 06:33:31;;;;;;;15.93;10.20;;;;;;;10.41;100.00;100538.69;4991377;28;20049;-81
2023/05/16 06:35:59;;;;;;;15.65;10.20;;;;;;;10.45;100.00;100540.38;4997244;28;20042;-81
2023/05/16 06:38:26;;;;;;;16.08;10.88;;;;;;;10.48;100.00;100540.31;4988531;28;20112;-81
2023/05/16 06:40:52;;;;;;;14.77;9.93;;;;;;;10.43;100.00;100545.72;4962968;28;20053;-81
2023/05/16 06:43:19;;;;;;;15.50;10.57;;;;;;;10.48;100.00;100544.72;4989279;28;20064;-81
2023/05/16 06:45:46;;;;;;;19.08;9.90;;;;;;;10.40;100.00;100548.38;5014225;28;20042;-81
2023/05/16 06:48:16;;;;;;;15.13;10.43;;;;;;;10.43;100.00;100550.13;4981437;28;20477;-80
2023/05/16 06:50:47;;;;;;;16.05;11.15;;;;;;;10.41;100.00;100560.69;5014633;28;20038;-81
2023/05/16 06:53:13;;;;;;;17.13;10.43;;;;;;;10.52;100.00;100560.47;4991274;28;20054;-80
2023/05/16 06:55:40;;;;;;;16.70;9.82;;;;;;;10.45;100.00;100566.78;5019379;28;20121;-82
2023/05/16 06:58:07;;;;;;;16.85;10.70;;;;;;;10.46;100.00;100562.38;4993164;28;20467;-81
2023/05/16 07:00:34;;;;;;;14.95;10.02;;;;;;;10.46;100.00;100573.81;4991794;28;20057;-81
2023/05/16 07:03:02;;;;;;;17.52;10.60;;;;;;;10.46;100.00;100571.16;5001092;28;20045;-81
2023/05/16 07:05:30;;;;;;;13.90;9.75;;;;;;;10.46;100.00;100581.75;4994057;28;20404;-80
2023/05/16 07:07:57;;;;;;;15.90;10.02;;;;;;;10.48;100.00;100584.34;4986689;28;20691;-80
2023/05/16 07:10:23;;;;;;;16.70;9.65;;;;;;;10.59;100.00;100577.91;5009406;28;20058;-82
2023/05/16 07:12:50;;;;;;;17.13;9.13;;;;;;;10.53;100.00;100578.06;5007968;28;20046;-80
2023/05/16 07:15:17;;;;;;;18.42;9.43;;;;;;;10.51;100.00;100589.53;5003541;28;20697;-81
2023/05/16 07:17:44;;;;;;;14.15;8.70;;;;;;;10.61;100.00;100585.84;5002047;28;20070;-80
2023/05/16 07:20:13;;;;;;;12.13;8.45;;;;;;;10.64;100.00;100583.09;4995358;28;20561;-81
2023/05/16 07:22:39;;;;;;;12.85;8.23;;;;;;;10.62;100.00;100584.94;5016712;28;20125;-80
2023/05/16 07:25:11;;;;;;;12.95;8.68;;;;;;;10.60;100.00;100590.25;5011320;28;20077;-81
2023/05/16 07:27:40;;;;;;;11.88;8.10;;;;;;;10.73;100.00;100601.41;5005307;28;20049;-79
2023/05/16 07:30:08;;;;;;;13.57;9.02;;;;;;;10.85;100.00;100590.56;5003157;28;20054;-81
2023/05/16 07:32:36;;;;;;;11.52;8.05;;;;;;;10.78;100.00;100594.25;4983124;28;20096;-80
2023/05/16 07:35:03;;;;;;;12.90;6.95;;;;;;;10.72;100.00;100589.09;4980353;28;20716;-80
2023/05/16 07:37:30;;;;;;;15.35;8.35;;;;;;;10.77;100.00;100597.81;4990769;28;20085;-79
2023/05/16 07:39:58;;;;;;;11.60;7.65;;;;;;;10.86;100.00;100592.31;4990001;28;20040;-81
2023/05/16 07:42:25;;;;;;;12.55;7.78;;;;;;;10.88;100.00;100601.06;4998991;28;20129;-80
2023/05/16 07:44:51;;;;;;;10.35;6.65;;;;;;;10.98;100.00;100599.94;4976045;28;20053;-81
2023/05/16 07:47:18;;;;;;;10.93;7.15;;;;;;;10.96;100.00;100614.09;4993271;28;20566;-81
2023/05/16 07:49:45;;;;;;;11.18;6.90;;;;;;;11.06;100.00;100609.47;5005378;28;20073;-80
2023/05/16 07:52:12;;;;;;;10.07;6.65;;;;;;;10.98;100.00;100612.28;4984794;28;20137;-81
2023/05/16 07:54:38;;;;;;;10.45;6.53;;;;;;;11.04;100.00;100617.44;5019294;28;20130;-81
2023/05/16 07:57:06;;;;;;;20.88;12.77;;;;;;;11.07;100.00;100614.72;4994610;28;20096;-80
2023/05/16 07:59:33;;;;;;;12.75;6.68;;;;;;;11.04;100.00;100633.31;4998072;28;20075;-80
2023/05/16 08:02:00;;;;;;;9.18;6.20;;;;;;;10.86;100.00;100639.00;4993790;28;20053;-80
2023/05/16 08:04:26;;;;;;;9.25;7.00;;;;;;;10.97;100.00;100644.91;5013848;28;20046;-81
2023/05/16 08:06:54;;;;;;;8.25;5.22;;;;;;;11.04;100.00;100643.00;5011150;28;20057;-82
2023/05/16 08:09:33;;;;;;;9.10;6.07;;;;;;;10.89;100.00;100652.16;5018146;28;20154;-81
2023/05/16 08:12:07;;;;;;;11.90;6.65;;;;;;;10.85;100.00;100659.28;5013672;28;20042;-80
2023/05/16 08:14:50;;;;;;;7.75;5.43;;;;;;;10.86;100.00;100652.22;5011283;28;20054;-80
2023/05/16 08:17:31;;;;;;;9.68;6.47;;;;;;;10.62;100.00;100659.75;5020652;28;20499;-80
2023/05/16 08:20:20;;;;;;;10.73;6.53;;;;;;;10.77;100.00;100666.50;4984550;28;20050;-81
2023/05/16 08:22:51;;;;;;;10.18;7.18;;;;;;;10.80;100.00;100679.66;4986711;28;20110;-81
2023/05/16 08:25:53;;;;;;;9.80;5.47;;;;;;;10.83;100.00;100670.78;5000582;28;20137;-81
2023/05/16 08:36:30;;;;;;;11.32;6.30;;;;;;;10.78;100.00;100667.38;5011925;28;20702;-80
2023/05/16 08:40:00;;;;;;;9.40;5.72;;;;;;;10.82;100.00;100669.91;5024319;28;20048;-81
2023/05/16 08:46:51;;;;;;;8.65;5.57;;;;;;;10.89;100.00;100662.72;5014588;28;20061;-81
2023/05/16 08:49:46;;;;;;;9.98;5.45;;;;;;;10.97;100.00;100663.44;5014961;28;20052;-81
2023/05/16 08:56:59;;;;;;;6.68;4.60;;;;;;;10.87;100.00;100672.47;5007013;28;20073;-81
2023/05/16 09:00:10;;;;;;;6.90;4.45;;;;;;;10.97;100.00;100674.00;5013964;28;20053;-80
2023/05/16 09:02:58;;;;;;;7.90;4.53;;;;;;;11.05;100.00;100672.06;5014033;28;20061;-82
2023/05/16 09:08:48;;;;;;;46.63;21.52;;;;;;;10.93;100.00;100680.25;5026354;28;20034;-82
2023/05/16 09:16:28;;;;;;;15.20;8.15;;;;;;;11.04;100.00;100691.47;5006933;28;20555;-82
2023/05/16 09:19:00;;;;;;;6.88;5.10;;;;;;;11.16;100.00;100692.97;4980817;28;20050;-82
2023/05/16 09:21:43;;;;;;;10.77;5.65;;;;;;;11.18;100.00;100694.69;5016513;28;20275;-82
2023/05/16 09:24:10;;;;;;;9.07;4.63;;;;;;;11.28;100.00;100687.41;5025543;28;20105;-82
2023/05/16 09:26:38;;;;;;;5.88;3.75;;;;;;;11.26;100.00;100692.72;5010801;28;20121;-82
2023/05/16 09:29:10;;;;;;;10.88;5.13;;;;;;;11.32;100.00;100697.00;5024612;28;20044;-82
2023/05/16 09:31:37;;;;;;;7.57;3.90;;;;;;;11.17;100.00;100687.63;5010533;28;20041;-82
2023/05/16 09:34:10;;;;;;;7.53;3.80;;;;;;;11.08;100.00;100694.91;5020946;28;20049;-80
2023/05/16 09:36:36;;;;;;;6.72;3.22;;;;;;;11.11;100.00;100690.44;5010617;28;20045;-82
2023/05/16 09:39:05;;;;;;;4.30;2.97;;;;;;;11.04;100.00;100699.41;5008399;28;20055;-81
2023/05/16 09:41:33;;;;;;;5.68;3.35;;;;;;;11.13;100.00;100695.69;5015698;28;20046;-82
2023/05/16 09:44:05;;;;;;;6.93;3.17;;;;;;;11.10;100.00;100688.69;5022939;28;20050;-81
2023/05/16 09:46:33;;;;;;;4.88;2.80;;;;;;;10.95;100.00;100689.91;4999265;28;20096;-82
2023/05/16 09:49:00;;;;;;;6.78;3.03;;;;;;;11.14;100.00;100697.41;5023014;28;20569;-83
2023/05/16 09:51:27;;;;;;;5.93;3.80;;;;;;;11.25;100.00;100687.47;5010922;28;20073;-82
2023/05/16 09:53:54;;;;;;;7.28;3.20;;;;;;;11.40;100.00;100686.25;5004772;28;20058;-82
2023/05/16 09:56:21;;;;;;;7.65;3.30;;;;;;;11.54;100.00;100678.88;5003471;28;20109;-80
2023/05/16 09:58:50;;;;;;;7.35;3.30;;;;;;;11.66;100.00;100686.50;5024195;28;20044;-81
2023/05/16 10:01:17;;;;;;;9.18;8.20;;;;;;;11.62;100.00;100698.06;4998131;28;20062;-81
2023/05/16 10:03:47;;;;;;;5.97;3.70;;;;;;;11.58;97.28;100706.97;5013117;28;20061;-80
2023/05/16 10:06:15;;;;;;;7.60;3.42;;;;;;;11.69;97.59;100718.19;5024466;28;20100;-81
2023/05/16 10:08:42;;;;;;;4.05;2.70;;;;;;;11.60;98.75;100709.56;5009096;28;20037;-80
2023/05/16 10:11:10;;;;;;;8.73;3.75;;;;;;;11.54;100.00;100718.56;5024597;28;20450;-80
2023/05/16 10:13:37;;;;;;;13.60;10.00;;;;;;;11.64;100.00;100719.19;5007912;28;20045;-80
2023/05/16 10:16:10;;;;;;;8.52;4.47;;;;;;;11.67;100.00;100719.97;5000798;28;20034;-81
2023/05/16 10:18:37;;;;;;;10.77;6.57;;;;;;;11.70;100.00;100727.00;5002414;28;20133;-81
2023/05/16 10:21:06;;;;;;;15.05;9.88;;;;;;;11.81;100.00;100725.84;5034040;28;20038;-81
2023/05/16 10:23:38;;;;;;;9.75;5.88;;;;;;;11.89;97.49;100725.66;5008752;28;20076;-80
2023/05/16 10:26:05;;;;;;;7.95;4.43;;;;;;;11.87;96.22;100731.91;5024966;28;20101;-81
2023/05/16 10:28:32;;;;;;;5.43;2.78;;;;;;;11.73;92.40;100725.13;5036989;28;20056;-81
2023/05/16 10:31:00;;;;;;;7.68;4.20;;;;;;;11.97;98.96;100733.41;5015514;28;20057;-80
2023/05/16 10:33:27;;;;;;;8.52;2.47;;;;;;;11.83;90.53;100731.97;5018707;28;20053;-82
2023/05/16 10:35:54;;;;;;;8.52;4.43;;;;;;;11.93;97.96;100735.25;5009131;28;20073;-81
2023/05/16 10:38:23;;;;;;;6.15;3.70;;;;;;;11.88;97.98;100736.31;5020871;28;20041;-83
2023/05/16 10:40:50;;;;;;;7.00;2.97;;;;;;;11.92;92.88;100741.47;5015565;28;20034;-81
2023/05/16 10:43:25;;;;;;;7.90;3.88;;;;;;;12.13;96.68;100745.38;5015031;28;20092;-82
2023/05/16 10:46:08;;;;;;;6.60;3.63;;;;;;;12.15;96.63;100737.38;5020569;28;20072;-83
2023/05/16 10:48:39;;;;;;;6.40;2.88;;;;;;;12.26;95.58;100745.91;5041501;28;20073;-82
2023/05/16 10:51:36;;;;;;;5.82;2.50;;;;;;;12.28;92.29;100747.63;5002040;28;20053;-82
2023/05/16 10:54:09;;;;;;;5.13;2.97;;;;;;;12.30;92.21;100750.22;5004938;28;20301;-83
2023/05/16 10:56:35;;;;;;;5.40;2.83;;;;;;;12.09;88.77;100749.84;4993062;28;20060;-83
2023/05/16 10:59:03;;;;;;;7.22;3.53;;;;;;;12.24;86.03;100745.09;5015397;28;20049;-84
2023/05/16 11:01:33;;;;;;;7.05;2.30;;;;;;;12.36;92.51;100748.31;5006997;28;20109;-85
2023/05/16 11:04:06;;;;;;;5.45;2.20;;;;;;;12.34;90.93;100759.81;5000537;28;20663;-82
2023/05/16 11:06:35;;;;;;;4.88;2.60;;;;;;;12.42;89.40;100757.84;4982984;28;20105;-81
2023/05/16 11:09:10;;;;;;;6.78;2.72;;;;;;;12.40;85.39;100754.38;5007326;28;20038;-82
2023/05/16 11:11:46;;;;;;;8.52;5.13;;;;;;;12.37;84.48;100751.81;4985772;28;20045;-80
2023/05/16 11:14:36;;;;;;;56.92;29.02;;;;;;;12.31;84.85;100762.56;5002498;28;20046;-80
2023/05/16 11:17:09;;;;;;;43.65;21.02;;;;;;;12.35;87.88;100762.44;4988014;28;20038;-79
2023/05/16 11:19:57;;;;;;;8.95;4.70;;;;;;;12.34;91.21;100759.81;4981581;28;20050;-80
2023/05/16 11:22:27;;;;;;;7.50;3.03;;;;;;;12.33;92.45;100758.09;4973611;28;20061;-81
2023/05/16 11:25:14;;;;;;;9.02;3.17;;;;;;;12.39;86.41;100752.63;4968231;28;20046;-82
2023/05/16 11:27:45;;;;;;;4.65;2.40;;;;;;;12.34;87.97;100752.75;4995265;28;20081;-81
2023/05/16 11:30:18;;;;;;;5.18;2.20;;;;;;;12.34;89.65;100750.09;4975902;28;20136;-81
2023/05/16 11:32:46;;;;;;;7.00;2.60;;;;;;;12.27;83.23;100751.16;4979121;28;20145;-81
2023/05/16 11:35:14;;;;;;;6.30;2.90;;;;;;;12.39;88.31;100750.84;4977951;28;20046;-81
2023/05/16 11:37:41;;;;;;;7.03;2.72;;;;;;;12.64;90.49;100747.53;4975398;28;20046;-79
2023/05/16 11:40:10;;;;;;;7.05;2.85;;;;;;;12.77;80.81;100753.38;4975533;28;20133;-79
2023/05/16 11:42:43;;;;;;;8.20;2.80;;;;;;;12.78;79.32;100747.13;4975484;28;20058;-79
2023/05/16 11:45:24;;;;;;;8.70;3.45;;;;;;;13.00;79.97;100753.59;5010617;28;20471;-81
2023/05/16 11:47:51;;;;;;;9.98;3.50;;;;;;;12.92;79.55;100739.69;4994112;28;20506;-82